createdAt,value
2023-03-26T00:01:05.870Z,3.33
2023-03-26T00:03:33.729Z,3.55
2023-03-26T00:06:05.127Z,4.45
2023-03-26T00:08:32.402Z,3.30
2023-03-26T00:11:00.628Z,3.15
2023-03-26T00:13:29.192Z,3.08
2023-03-26T00:15:55.973Z,3.58
2023-03-26T00:18:30.126Z,3.47
2023-03-26T00:20:58.602Z,3.10
2023-03-26T00:23:27.053Z,2.95
2023-03-26T00:25:54.797Z,3.50
2023-03-26T00:28:23.569Z,3.50
2023-03-26T00:30:57.080Z,3.67
2023-03-26T00:33:24.045Z,5.28
2023-03-26T00:35:59.145Z,3.17
2023-03-26T00:38:27.427Z,3.83
2023-03-26T00:40:54.896Z,3.15
2023-03-26T00:43:22.908Z,3.53
2023-03-26T00:45:52.277Z,4.03
2023-03-26T00:48:19.120Z,3.28
2023-03-26T00:50:47.392Z,3.20
2023-03-26T00:53:15.734Z,4.00
2023-03-26T00:55:44.874Z,3.88
2023-03-26T00:58:12.901Z,3.75
2023-03-26T01:00:50.905Z,3.60
2023-03-26T01:03:27.774Z,3.13
2023-03-26T01:06:04.917Z,3.63
2023-03-26T01:08:35.392Z,2.90
2023-03-26T01:11:07.449Z,3.30
2023-03-26T01:13:38.148Z,3.03
2023-03-26T01:16:20.364Z,3.05
2023-03-26T01:18:48.753Z,3.17
2023-03-26T01:21:22.773Z,3.05
2023-03-26T01:24:09.755Z,3.20
2023-03-26T01:26:52.794Z,3.08
2023-03-26T01:29:39.302Z,3.13
2023-03-26T01:32:24.404Z,4.10
2023-03-26T01:35:13.173Z,3.15
2023-03-26T01:38:10.889Z,4.40
2023-03-26T01:41:03.135Z,2.97
2023-03-26T01:43:51.113Z,2.83
2023-03-26T01:46:19.497Z,3.33
2023-03-26T01:48:47.391Z,3.22
2023-03-26T01:51:25.678Z,2.85
2023-03-26T01:53:53.863Z,3.40
2023-03-26T01:56:35.629Z,4.30
2023-03-26T01:59:17.098Z,3.50
2023-03-26T02:01:55.906Z,3.50
2023-03-26T02:04:36.233Z,3.80
2023-03-26T02:07:09.331Z,4.05
2023-03-26T02:09:47.174Z,4.53
2023-03-26T02:12:14.832Z,3.83
2023-03-26T02:14:43.080Z,4.45
2023-03-26T02:17:11.200Z,4.20
2023-03-26T02:19:42.349Z,3.60
2023-03-26T02:22:11.386Z,4.85
2023-03-26T02:24:38.686Z,4.13
2023-03-26T02:27:10.030Z,4.15
2023-03-26T02:29:38.210Z,4.78
2023-03-26T02:32:08.629Z,3.95
2023-03-26T02:34:36.890Z,4.68
2023-03-26T02:37:03.608Z,4.10
2023-03-26T02:39:30.184Z,3.90
2023-03-26T02:41:56.821Z,4.13
2023-03-26T02:44:23.527Z,4.25
2023-03-26T02:46:50.367Z,4.30
2023-03-26T02:49:17.661Z,4.25
2023-03-26T02:51:44.531Z,4.15
2023-03-26T02:54:11.069Z,4.40
2023-03-26T02:56:37.971Z,4.47
2023-03-26T02:59:04.647Z,3.90
2023-03-26T03:01:35.105Z,4.47
2023-03-26T03:04:04.350Z,4.68
2023-03-26T03:06:32.470Z,4.18
2023-03-26T03:09:02.656Z,4.57
2023-03-26T03:11:29.262Z,4.35
2023-03-26T03:13:56.186Z,4.20
2023-03-26T03:16:23.293Z,4.10
2023-03-26T03:18:54.693Z,4.38
2023-03-26T03:21:21.921Z,3.97
2023-03-26T03:23:48.581Z,4.43
2023-03-26T03:26:18.074Z,4.75
2023-03-26T03:28:45.322Z,4.00
2023-03-26T03:31:12.027Z,3.95
2023-03-26T03:33:38.765Z,4.85
2023-03-26T03:36:10.514Z,4.28
2023-03-26T03:38:48.119Z,4.45
2023-03-26T03:41:15.230Z,4.50
2023-03-26T03:43:41.827Z,4.38
2023-03-26T03:46:08.472Z,4.32
2023-03-26T03:48:38.148Z,3.95
2023-03-26T03:51:06.147Z,4.00
2023-03-26T03:53:36.922Z,4.50
2023-03-26T03:56:04.678Z,4.20
2023-03-26T03:58:31.400Z,4.90
2023-03-26T04:01:04.654Z,4.22
2023-03-26T04:03:33.538Z,4.07
2023-03-26T04:06:01.171Z,4.10
2023-03-26T04:08:27.720Z,3.97
2023-03-26T04:10:54.409Z,4.40
2023-03-26T04:13:21.628Z,4.20
2023-03-26T04:15:48.414Z,4.45
2023-03-26T04:18:15.505Z,3.72
2023-03-26T04:20:47.415Z,4.13
2023-03-26T04:23:15.829Z,4.32
2023-03-26T04:25:48.510Z,4.15
2023-03-26T04:28:28.796Z,4.25
2023-03-26T04:31:00.738Z,4.30
2023-03-26T04:33:32.865Z,4.25
2023-03-26T04:36:02.931Z,5.30
2023-03-26T04:38:33.628Z,5.32
2023-03-26T04:41:04.540Z,5.40
2023-03-26T04:43:31.498Z,5.50
2023-03-26T04:45:58.134Z,5.60
2023-03-26T04:48:24.755Z,4.30
2023-03-26T04:50:51.461Z,4.05
2023-03-26T04:53:21.480Z,3.97
2023-03-26T04:55:57.322Z,4.47
2023-03-26T04:58:30.234Z,4.53
2023-03-26T05:00:57.455Z,4.07
2023-03-26T05:03:25.752Z,4.68
2023-03-26T05:05:52.595Z,4.35
2023-03-26T05:08:19.325Z,5.90
2023-03-26T05:10:45.932Z,4.43
2023-03-26T05:13:12.508Z,4.28
2023-03-26T05:15:40.529Z,5.05
2023-03-26T05:18:08.885Z,4.35
2023-03-26T05:20:36.072Z,4.40
2023-03-26T05:23:02.930Z,4.15
2023-03-26T05:25:29.677Z,4.97
2023-03-26T05:27:56.420Z,4.30
2023-03-26T05:30:23.060Z,4.50
2023-03-26T05:32:50.064Z,4.15
2023-03-26T05:35:19.186Z,4.38
2023-03-26T05:37:48.037Z,4.90
2023-03-26T05:40:17.198Z,4.28
2023-03-26T05:42:44.138Z,4.38
2023-03-26T05:45:13.574Z,4.22
2023-03-26T05:47:40.673Z,4.60
2023-03-26T05:50:08.696Z,4.78
2023-03-26T05:52:35.697Z,4.65
2023-03-26T05:55:02.792Z,4.80
2023-03-26T05:57:31.130Z,4.60
2023-03-26T05:59:57.749Z,4.20
2023-03-26T06:02:24.537Z,4.68
2023-03-26T06:04:51.207Z,4.93
2023-03-26T06:07:18.756Z,5.20
2023-03-26T06:09:45.815Z,4.07
2023-03-26T06:12:13.448Z,4.00
2023-03-26T06:14:42.722Z,4.55
2023-03-26T06:17:10.497Z,4.25
2023-03-26T06:19:37.300Z,3.78
2023-03-26T06:22:04.792Z,3.97
2023-03-26T06:24:32.290Z,4.68
2023-03-26T06:26:59.206Z,4.93
2023-03-26T06:29:26.028Z,4.85
2023-03-26T06:31:52.853Z,4.60
2023-03-26T06:34:19.939Z,4.50
2023-03-26T06:36:52.670Z,4.95
2023-03-26T06:39:20.204Z,6.00
2023-03-26T06:41:48.237Z,4.90
2023-03-26T06:44:16.055Z,6.03
2023-03-26T06:46:42.859Z,4.88
2023-03-26T06:49:09.736Z,5.07
2023-03-26T06:51:37.730Z,6.35
2023-03-26T06:54:04.507Z,5.10
2023-03-26T06:56:31.157Z,7.28
2023-03-26T06:58:57.766Z,6.82
2023-03-26T07:01:24.477Z,5.68
2023-03-26T07:03:51.093Z,6.63
2023-03-26T07:06:17.734Z,6.53
2023-03-26T07:08:44.554Z,7.78
2023-03-26T07:11:11.390Z,5.85
2023-03-26T07:13:39.981Z,7.10
2023-03-26T07:16:07.318Z,6.50
2023-03-26T07:18:34.074Z,7.00
2023-03-26T07:21:01.422Z,7.30
2023-03-26T07:23:28.349Z,7.13
2023-03-26T07:25:55.581Z,7.43
2023-03-26T07:29:04.140Z,6.93
2023-03-26T07:32:17.898Z,7.00
2023-03-26T07:35:16.765Z,5.85
2023-03-26T07:37:55.854Z,5.45
2023-03-26T07:40:47.068Z,6.88
2023-03-26T07:43:35.623Z,5.78
2023-03-26T07:46:02.530Z,6.20
2023-03-26T07:48:41.002Z,5.97
2023-03-26T07:51:08.551Z,5.90
2023-03-26T07:53:35.487Z,6.05
2023-03-26T07:56:05.310Z,4.82
2023-03-26T07:59:01.836Z,4.65
2023-03-26T08:01:43.629Z,4.20
2023-03-26T08:04:26.461Z,4.65
2023-03-26T08:07:17.937Z,4.80
2023-03-26T08:10:09.458Z,4.88
2023-03-26T08:12:55.454Z,5.25
2023-03-26T08:15:25.860Z,4.75
2023-03-26T08:18:19.376Z,4.07
2023-03-26T08:20:50.089Z,5.53
2023-03-26T08:23:29.029Z,5.70
2023-03-26T08:26:23.093Z,4.15
2023-03-26T08:29:07.674Z,4.60
2023-03-26T08:31:39.009Z,4.55
2023-03-26T08:34:06.473Z,3.38
2023-03-26T08:36:33.111Z,3.78
2023-03-26T08:38:59.709Z,3.08
2023-03-26T08:41:42.929Z,3.45
2023-03-26T08:44:34.361Z,3.15
2023-03-26T08:47:19.449Z,3.30
2023-03-26T08:50:13.733Z,3.10
2023-03-26T08:52:56.782Z,3.08
2023-03-26T08:55:43.247Z,3.05
2023-03-26T08:58:38.436Z,2.97
2023-03-26T09:01:23.205Z,2.90
2023-03-26T09:04:18.621Z,2.92
2023-03-26T09:06:54.575Z,2.50
2023-03-26T09:10:09.477Z,2.50
2023-03-26T09:13:03.844Z,2.53
2023-03-26T09:15:42.506Z,2.80
2023-03-26T09:18:14.881Z,2.90
2023-03-26T09:20:54.765Z,2.38
2023-03-26T09:23:52.743Z,3.03
2023-03-26T09:29:08.525Z,3.25
2023-03-26T09:31:58.212Z,2.90
2023-03-26T09:34:33.015Z,3.10
2023-03-26T09:37:06.380Z,3.05
2023-03-26T09:39:46.411Z,4.60
2023-03-26T09:42:31.448Z,3.17
2023-03-26T09:45:03.852Z,3.35
2023-03-26T09:47:52.972Z,2.92
2023-03-26T09:50:30.199Z,3.38
2023-03-26T09:53:34.873Z,3.20
2023-03-26T09:56:11.819Z,3.30
2023-03-26T09:58:38.351Z,3.10
2023-03-26T10:01:26.249Z,2.88
2023-03-26T10:04:11.161Z,3.17
2023-03-26T10:07:32.039Z,3.58
2023-03-26T10:10:13.386Z,2.85
2023-03-26T10:12:43.537Z,2.92
2023-03-26T10:15:25.469Z,3.65
2023-03-26T10:18:26.752Z,2.97
2023-03-26T10:21:14.238Z,4.43
2023-03-26T10:24:14.389Z,3.92
2023-03-26T10:27:09.348Z,3.20
2023-03-26T10:29:57.658Z,3.10
2023-03-26T10:32:24.266Z,2.80
2023-03-26T10:35:16.710Z,2.75
2023-03-26T10:38:06.280Z,3.13
2023-03-26T10:40:54.968Z,2.90
2023-03-26T10:43:46.407Z,3.13
2023-03-26T10:46:21.687Z,2.42
2023-03-26T10:49:26.866Z,2.55
2023-03-26T10:51:58.948Z,3.13
2023-03-26T10:54:46.543Z,2.70
2023-03-26T10:57:22.342Z,2.78
2023-03-26T10:59:48.951Z,2.43
2023-03-26T11:02:30.491Z,2.75
2023-03-26T11:05:29.724Z,3.05
2023-03-26T11:08:06.637Z,3.05
2023-03-26T11:11:20.701Z,2.50
2023-03-26T11:14:07.055Z,3.28
2023-03-26T11:16:42.461Z,2.83
2023-03-26T11:19:14.988Z,2.78
2023-03-26T11:21:48.586Z,2.90
2023-03-26T11:24:45.433Z,2.53
2023-03-26T11:27:17.438Z,2.75
2023-03-26T11:30:03.445Z,3.35
2023-03-26T11:33:02.720Z,2.33
2023-03-26T11:35:39.679Z,2.38
2023-03-26T11:38:37.545Z,3.45
2023-03-26T11:41:13.139Z,3.03
2023-03-26T11:43:39.640Z,2.78
2023-03-26T11:46:12.095Z,2.42
2023-03-26T11:48:57.653Z,2.80
2023-03-26T11:51:36.865Z,2.53
2023-03-26T11:54:05.607Z,2.33
2023-03-26T11:56:41.220Z,2.40
2023-03-26T11:59:45.119Z,2.50
2023-03-26T12:02:29.877Z,2.15
2023-03-26T12:05:18.571Z,2.10
2023-03-26T12:07:59.725Z,2.20
2023-03-26T12:10:39.661Z,2.08
2023-03-26T12:13:29.036Z,2.63
2023-03-26T12:16:05.863Z,2.42
2023-03-26T12:18:32.778Z,2.60
2023-03-26T12:21:08.549Z,3.10
2023-03-26T12:23:42.644Z,3.25
2023-03-26T12:26:20.820Z,3.45
2023-03-26T12:28:51.170Z,3.55
2023-03-26T12:31:19.656Z,2.80
2023-03-26T12:34:04.355Z,2.47
2023-03-26T12:36:35.913Z,2.97
2023-03-26T12:40:09.178Z,2.28
2023-03-26T12:44:49.666Z,2.40
2023-03-26T12:45:29.869Z,2.15
2023-03-26T12:48:03.524Z,2.55
2023-03-26T12:51:12.730Z,2.33
2023-03-26T12:53:50.525Z,2.47
2023-03-26T12:56:38.537Z,2.88
2023-03-26T12:59:39.648Z,2.35
2023-03-26T13:02:44.063Z,2.13
2023-03-26T13:05:29.605Z,1.75
2023-03-26T13:08:50.670Z,2.13
2023-03-26T13:11:38.100Z,2.47
2023-03-26T13:14:30.883Z,2.85
2023-03-26T13:17:18.374Z,2.35
2023-03-26T13:19:51.609Z,2.20
2023-03-26T13:22:46.608Z,2.40
2023-03-26T13:25:18.882Z,2.67
2023-03-26T13:27:54.581Z,2.30
2023-03-26T13:30:44.763Z,2.58
2023-03-26T13:33:30.369Z,2.30
2023-03-26T13:36:25.133Z,2.10
2023-03-26T13:39:16.313Z,2.20
2023-03-26T13:41:51.230Z,2.05
2023-03-26T13:44:32.708Z,1.95
2023-03-26T13:47:09.548Z,2.53
2023-03-26T13:49:56.777Z,2.03
2023-03-26T13:54:55.288Z,1.80
2023-03-26T13:57:29.983Z,2.08
2023-03-26T14:00:12.703Z,2.35
2023-03-26T14:02:41.665Z,2.17
2023-03-26T14:05:30.521Z,1.60
2023-03-26T14:08:05.886Z,1.70
2023-03-26T14:10:38.696Z,1.88
2023-03-26T14:13:16.351Z,2.22
2023-03-26T14:15:56.155Z,2.25
2023-03-26T14:18:22.890Z,2.10
2023-03-26T14:21:13.281Z,2.72
2023-03-26T14:24:17.801Z,2.00
2023-03-26T14:27:15.667Z,2.10
2023-03-26T14:32:52.371Z,2.22
2023-03-26T14:35:46.584Z,2.55
2023-03-26T14:38:42.781Z,1.80
2023-03-26T14:41:29.529Z,3.35
2023-03-26T14:44:27.499Z,2.20
2023-03-26T14:47:20.582Z,2.60
2023-03-26T14:50:21.630Z,2.25
2023-03-26T14:52:52.287Z,1.77
2023-03-26T14:55:48.530Z,1.90
2023-03-26T14:58:44.170Z,1.85
2023-03-26T15:01:27.629Z,1.55
2023-03-26T15:04:35.288Z,1.75
2023-03-26T15:07:11.143Z,1.98
2023-03-26T15:10:15.163Z,1.63
2023-03-26T15:13:20.422Z,1.75
2023-03-26T15:16:17.843Z,1.77
2023-03-26T15:19:17.725Z,2.90
2023-03-26T15:22:13.227Z,2.45
2023-03-26T15:25:04.671Z,2.90
2023-03-26T15:28:00.169Z,2.40
2023-03-26T15:30:48.663Z,2.20
2023-03-26T15:33:39.255Z,2.08
2023-03-26T15:36:24.090Z,2.60
2023-03-26T15:39:15.646Z,2.13
2023-03-26T15:41:52.085Z,1.90
2023-03-26T15:44:28.557Z,2.13
2023-03-26T15:47:13.897Z,1.30
2023-03-26T15:49:45.706Z,1.77
2023-03-26T15:52:29.701Z,2.60
2023-03-26T15:55:08.568Z,1.77
2023-03-26T15:58:18.367Z,2.05
2023-03-26T16:01:26.718Z,1.88
2023-03-26T16:07:43.925Z,1.70
2023-03-26T16:10:56.051Z,1.77
2023-03-26T16:13:33.993Z,1.98
2023-03-26T16:16:04.110Z,1.67
2023-03-26T16:18:42.203Z,1.73
2023-03-26T16:21:32.351Z,2.05
2023-03-26T16:24:02.689Z,1.58
2023-03-26T16:26:44.690Z,2.03
2023-03-26T16:29:14.506Z,2.25
2023-03-26T16:32:04.722Z,1.80
2023-03-26T16:34:52.927Z,1.60
2023-03-26T16:38:09.153Z,1.75
2023-03-26T16:40:49.062Z,2.08
2023-03-26T16:43:41.855Z,2.30
2023-03-26T16:46:15.436Z,2.03
2023-03-26T16:49:00.678Z,1.92
2023-03-26T16:51:43.252Z,2.38
2023-03-26T16:54:18.817Z,1.67
2023-03-26T16:57:01.176Z,1.95
2023-03-26T16:59:43.074Z,2.53
2023-03-26T17:02:17.119Z,2.20
2023-03-26T17:04:47.585Z,2.30
2023-03-26T17:07:37.409Z,1.70
2023-03-26T17:10:36.452Z,1.92
2023-03-26T17:13:16.795Z,1.58
2023-03-26T17:16:29.280Z,2.10
2023-03-26T17:19:09.255Z,2.33
2023-03-26T17:22:01.586Z,2.17
2023-03-26T17:24:54.066Z,2.05
2023-03-26T17:27:30.869Z,2.60
2023-03-26T17:30:03.706Z,2.50
2023-03-26T17:32:55.434Z,2.75
2023-03-26T17:35:49.595Z,2.78
2023-03-26T17:38:25.023Z,2.50
2023-03-26T17:40:56.051Z,2.50
2023-03-26T17:43:38.002Z,2.40
2023-03-26T17:46:24.953Z,2.20
2023-03-26T17:49:17.349Z,2.85
2023-03-26T17:52:05.953Z,1.77
2023-03-26T17:54:44.439Z,2.70
2023-03-26T17:57:21.490Z,2.13
2023-03-26T17:59:50.614Z,2.30
2023-03-26T18:02:22.025Z,2.22
2023-03-26T18:04:54.495Z,2.13
2023-03-26T18:08:02.904Z,3.70
2023-03-26T18:13:15.788Z,2.30
2023-03-26T18:15:51.559Z,1.67
2023-03-26T18:18:36.825Z,1.85
2023-03-26T18:21:08.954Z,2.55
2023-03-26T18:23:38.949Z,2.03
2023-03-26T18:26:13.782Z,1.65
2023-03-26T18:28:43.707Z,1.48
2023-03-26T18:31:22.663Z,2.38
2023-03-26T18:33:54.784Z,2.00
2023-03-26T18:36:24.630Z,2.13
2023-03-26T18:38:56.078Z,2.13
2023-03-26T18:41:33.089Z,2.15
2023-03-26T18:44:04.497Z,2.90
2023-03-26T18:46:33.368Z,3.00
2023-03-26T18:49:01.298Z,1.67
2023-03-26T18:51:29.492Z,2.13
2023-03-26T18:54:01.998Z,1.52
2023-03-26T18:56:28.919Z,2.50
2023-03-26T18:58:58.801Z,2.10
2023-03-26T19:01:31.092Z,1.27
2023-03-26T19:04:02.167Z,2.70
2023-03-26T19:06:29.839Z,1.73
2023-03-26T19:08:58.914Z,2.22
2023-03-26T19:11:26.584Z,2.75
2023-03-26T19:14:06.836Z,1.95
2023-03-26T19:16:36.638Z,3.17
2023-03-26T19:19:06.847Z,1.92
2023-03-26T19:21:35.771Z,2.20
2023-03-26T19:24:04.158Z,1.70
2023-03-26T19:26:31.663Z,1.58
2023-03-26T19:28:59.092Z,1.33
2023-03-26T19:31:37.164Z,2.85
2023-03-26T19:34:14.059Z,1.80
2023-03-26T19:39:37.277Z,1.70
2023-03-26T19:42:06.595Z,2.60
2023-03-26T19:44:33.688Z,2.25
2023-03-26T19:47:08.870Z,2.47
2023-03-26T19:49:48.467Z,2.92
2023-03-26T19:52:20.879Z,1.52
2023-03-26T19:55:00.310Z,2.35
2023-03-26T19:57:32.227Z,2.00
2023-03-26T19:59:59.629Z,2.25
2023-03-26T20:02:27.457Z,1.45
2023-03-26T20:04:54.305Z,1.63
2023-03-26T20:07:35.643Z,1.52
2023-03-26T20:10:05.677Z,1.98
2023-03-26T20:12:33.051Z,2.20
2023-03-26T20:15:01.912Z,2.35
2023-03-26T20:17:31.457Z,2.05
2023-03-26T20:19:58.648Z,1.67
2023-03-26T20:22:26.735Z,1.98
2023-03-26T20:24:54.821Z,1.75
2023-03-26T20:27:22.451Z,1.85
2023-03-26T20:29:49.266Z,1.65
2023-03-26T20:32:27.286Z,1.80
2023-03-26T20:34:54.620Z,2.00
2023-03-26T20:37:21.767Z,3.30
2023-03-26T20:39:50.123Z,1.38
2023-03-26T20:42:17.237Z,1.90
2023-03-26T20:44:43.994Z,1.25
2023-03-26T20:47:11.781Z,1.42
2023-03-26T20:49:40.346Z,1.35
2023-03-26T20:52:07.201Z,2.20
2023-03-26T20:54:33.889Z,1.50
2023-03-26T20:57:00.649Z,1.25
2023-03-26T20:59:28.343Z,1.50
2023-03-26T21:01:57.912Z,1.75
2023-03-26T21:04:26.319Z,1.42
2023-03-26T21:06:55.662Z,1.27
2023-03-26T21:09:35.474Z,1.15
2023-03-26T21:12:08.400Z,1.40
2023-03-26T21:14:42.426Z,1.55
2023-03-26T21:17:18.589Z,1.15
2023-03-26T21:19:46.150Z,1.67
2023-03-26T21:22:37.794Z,1.30
2023-03-26T21:25:22.833Z,2.30
2023-03-26T21:28:08.378Z,1.58
2023-03-26T21:30:36.126Z,1.02
2023-03-26T21:33:05.706Z,2.00
2023-03-26T21:35:42.094Z,1.17
2023-03-26T21:38:09.960Z,1.55
2023-03-26T21:40:39.027Z,1.40
2023-03-26T21:43:07.481Z,1.67
2023-03-26T21:45:34.336Z,0.85
2023-03-26T21:48:01.817Z,1.42
2023-03-26T21:50:28.842Z,1.65
2023-03-26T21:52:57.859Z,2.05
2023-03-26T21:55:24.859Z,1.73
2023-03-26T21:58:04.174Z,1.33
2023-03-26T22:00:49.313Z,0.88
2023-03-26T22:03:16.101Z,1.13
2023-03-26T22:05:57.528Z,1.27
2023-03-26T22:08:50.558Z,1.00
2023-03-26T22:11:17.195Z,1.40
2023-03-26T22:13:43.719Z,1.67
2023-03-26T22:16:10.818Z,1.00
2023-03-26T22:18:37.745Z,1.40
2023-03-26T22:21:04.842Z,0.98
2023-03-26T22:23:34.409Z,1.35
2023-03-26T22:26:01.121Z,1.00
2023-03-26T22:28:27.783Z,1.52
2023-03-26T22:30:54.652Z,1.50
2023-03-26T22:33:21.643Z,1.13
2023-03-26T22:35:48.255Z,1.25
2023-03-26T22:38:16.954Z,1.30
2023-03-26T22:40:43.570Z,1.10
2023-03-26T22:43:11.500Z,1.63
2023-03-26T22:45:38.162Z,1.10
2023-03-26T22:48:05.115Z,1.58
2023-03-26T22:50:32.908Z,1.73
2023-03-26T22:52:59.638Z,1.27
2023-03-26T22:55:28.198Z,0.75
2023-03-26T22:57:55.760Z,1.60
2023-03-26T23:00:22.572Z,1.00
2023-03-26T23:02:50.066Z,1.23
2023-03-26T23:05:19.933Z,1.40
2023-03-26T23:07:47.341Z,1.90
2023-03-26T23:10:14.026Z,1.70
2023-03-26T23:12:41.622Z,0.95
2023-03-26T23:15:09.709Z,1.45
2023-03-26T23:17:37.941Z,0.85
2023-03-26T23:20:12.532Z,1.10
2023-03-26T23:22:39.157Z,1.10
2023-03-26T23:25:06.743Z,1.38
2023-03-26T23:27:35.871Z,1.35
2023-03-26T23:30:04.269Z,1.38
2023-03-26T23:32:31.233Z,1.58
2023-03-26T23:34:57.957Z,1.20
2023-03-26T23:37:24.755Z,1.50
2023-03-26T23:39:53.690Z,1.33
2023-03-26T23:42:29.205Z,1.20
2023-03-26T23:44:57.113Z,1.38
2023-03-26T23:47:24.206Z,1.45
2023-03-26T23:49:51.016Z,1.55
2023-03-26T23:52:17.778Z,1.67
2023-03-26T23:54:45.068Z,1.42
2023-03-26T23:57:11.969Z,1.33
2023-03-26T23:59:38.869Z,0.98
